createdAt,value
2023-05-10T00:00:31.635Z,95.15
2023-05-10T00:01:31.612Z,95.25
2023-05-10T00:02:31.768Z,95.36
2023-05-10T00:03:31.709Z,95.46
2023-05-10T00:04:31.570Z,95.56
2023-05-10T00:05:31.561Z,95.86
2023-05-10T00:06:31.548Z,95.46
2023-05-10T00:07:31.558Z,95.25
2023-05-10T00:08:31.528Z,95.36
2023-05-10T00:09:31.524Z,95.15
2023-05-10T00:10:31.493Z,94.85
2023-05-10T00:11:31.483Z,94.64
2023-05-10T00:12:31.489Z,94.85
2023-05-10T00:13:31.521Z,95.25
2023-05-10T00:14:31.440Z,95.36
2023-05-10T00:15:31.448Z,95.56
2023-05-10T00:16:31.527Z,95.66
2023-05-10T00:17:31.454Z,95.56
2023-05-10T00:18:31.372Z,95.36
2023-05-10T00:19:31.389Z,95.46
2023-05-10T00:20:31.376Z,95.46
2023-05-10T00:21:31.368Z,95.61
2023-05-10T00:22:31.340Z,95.50
2023-05-10T00:23:31.330Z,95.50
2023-05-10T00:24:31.305Z,95.61
2023-05-10T00:25:31.292Z,95.50
2023-05-10T00:26:31.310Z,95.81
2023-05-10T00:27:31.274Z,96.11
2023-05-10T00:28:31.251Z,96.31
2023-05-10T00:29:31.252Z,96.11
2023-05-10T00:30:31.251Z,95.91
2023-05-10T00:31:31.252Z,95.91
2023-05-10T00:32:31.255Z,96.22
2023-05-10T00:33:31.197Z,96.42
2023-05-10T00:34:31.150Z,96.52
2023-05-10T00:35:31.185Z,96.31
2023-05-10T00:36:31.163Z,96.42
2023-05-10T00:37:31.165Z,96.62
2023-05-10T00:38:31.134Z,96.72
2023-05-10T00:39:31.116Z,96.83
2023-05-10T00:40:31.108Z,96.17
2023-05-10T00:41:31.098Z,95.86
2023-05-10T00:42:31.067Z,95.70
2023-05-10T00:43:31.055Z,95.66
2023-05-10T00:44:31.037Z,95.40
2023-05-10T00:45:31.043Z,95.50
2023-05-10T00:46:31.140Z,95.81
2023-05-10T00:47:31.325Z,96.11
2023-05-10T00:48:31.106Z,96.31
2023-05-10T00:49:30.996Z,96.42
2023-05-10T00:50:30.961Z,96.42
2023-05-10T00:51:30.958Z,96.37
2023-05-10T00:52:30.934Z,96.47
2023-05-10T00:53:30.942Z,96.37
2023-05-10T00:54:30.944Z,96.17
2023-05-10T00:55:30.907Z,96.07
2023-05-10T00:56:30.968Z,95.97
2023-05-10T00:57:30.869Z,95.86
2023-05-10T00:58:30.856Z,95.91
2023-05-10T00:59:30.865Z,96.01
2023-05-10T01:00:30.840Z,95.97
2023-05-10T01:01:30.837Z,95.97
2023-05-10T01:02:30.892Z,95.66
2023-05-10T01:03:30.844Z,95.70
2023-05-10T01:04:30.855Z,95.70
2023-05-10T01:05:30.771Z,95.81
2023-05-10T01:06:30.760Z,96.11
2023-05-10T01:07:30.741Z,96.07
2023-05-10T01:08:30.733Z,95.66
2023-05-10T01:09:30.724Z,95.15
2023-05-10T01:10:30.692Z,94.74
2023-05-10T01:11:30.690Z,94.64
2023-05-10T01:12:30.693Z,94.85
2023-05-10T01:13:30.769Z,94.85
2023-05-10T01:14:30.646Z,94.74
2023-05-10T01:15:30.632Z,94.64
2023-05-10T01:16:30.730Z,94.64
2023-05-10T01:17:30.657Z,94.85
2023-05-10T01:18:30.628Z,94.95
2023-05-10T01:19:30.584Z,95.15
2023-05-10T01:20:30.574Z,95.15
2023-05-10T01:21:30.560Z,95.36
2023-05-10T01:22:30.578Z,95.46
2023-05-10T01:23:30.558Z,95.36
2023-05-10T01:24:30.504Z,95.36
2023-05-10T01:25:30.505Z,95.56
2023-05-10T01:26:30.505Z,95.76
2023-05-10T01:27:30.558Z,95.50
2023-05-10T01:28:30.465Z,95.40
2023-05-10T01:29:30.469Z,95.61
2023-05-10T01:30:30.440Z,95.81
2023-05-10T01:31:30.505Z,95.50
2023-05-10T01:32:30.472Z,95.50
2023-05-10T01:33:30.412Z,95.61
2023-05-10T01:34:30.378Z,95.61
2023-05-10T01:35:30.384Z,95.70
2023-05-10T01:36:30.350Z,95.91
2023-05-10T01:37:30.364Z,95.61
2023-05-10T01:38:30.326Z,95.50
2023-05-10T01:39:30.448Z,95.61
2023-05-10T01:40:30.300Z,95.91
2023-05-10T01:41:30.325Z,96.01
2023-05-10T01:42:30.300Z,96.01
2023-05-10T01:43:30.258Z,95.91
2023-05-10T01:44:30.265Z,96.01
2023-05-10T01:45:30.233Z,96.01
2023-05-10T01:46:30.266Z,95.91
2023-05-10T01:47:30.230Z,95.70
2023-05-10T01:48:30.245Z,95.56
2023-05-10T01:49:30.224Z,95.25
2023-05-10T01:50:30.163Z,95.09
2023-05-10T01:51:30.183Z,95.20
2023-05-10T01:52:30.163Z,95.40
2023-05-10T01:53:30.175Z,95.40
2023-05-10T01:54:30.112Z,95.30
2023-05-10T01:55:30.154Z,95.40
2023-05-10T01:56:30.093Z,95.20
2023-05-10T01:57:30.072Z,95.00
2023-05-10T01:58:30.049Z,95.30
2023-05-10T01:59:30.050Z,95.30
2023-05-10T02:00:30.078Z,95.40
2023-05-10T02:01:30.015Z,95.50
2023-05-10T02:02:30.026Z,95.61
2023-05-10T02:03:30.091Z,95.61
2023-05-10T02:04:29.978Z,95.70
2023-05-10T02:05:29.982Z,96.01
2023-05-10T02:06:29.955Z,96.11
2023-05-10T02:07:29.949Z,96.01
2023-05-10T02:08:29.931Z,96.11
2023-05-10T02:09:29.948Z,96.11
2023-05-10T02:10:29.912Z,96.22
2023-05-10T02:11:29.886Z,96.52
2023-05-10T02:12:29.874Z,96.62
2023-05-10T02:13:29.969Z,96.52
2023-05-10T02:14:29.872Z,96.42
2023-05-10T02:15:29.846Z,96.31
2023-05-10T02:16:29.823Z,96.31
2023-05-10T02:17:29.844Z,96.42
2023-05-10T02:18:29.796Z,96.42
2023-05-10T02:19:29.800Z,96.62
2023-05-10T02:20:29.764Z,96.62
2023-05-10T02:21:29.756Z,96.67
2023-05-10T02:22:29.732Z,96.46
2023-05-10T02:23:29.744Z,96.46
2023-05-10T02:24:29.715Z,96.46
2023-05-10T02:25:29.713Z,96.67
2023-05-10T02:26:29.693Z,96.77
2023-05-10T02:27:29.678Z,96.77
2023-05-10T02:28:29.671Z,96.67
2023-05-10T02:29:29.664Z,96.56
2023-05-10T02:30:29.628Z,96.56
2023-05-10T02:31:29.641Z,96.77
2023-05-10T02:32:29.643Z,96.67
2023-05-10T02:33:29.608Z,96.87
2023-05-10T02:34:29.597Z,96.97
2023-05-10T02:35:29.580Z,96.97
2023-05-10T02:36:29.554Z,96.97
2023-05-10T02:37:29.531Z,96.97
2023-05-10T02:38:29.549Z,96.97
2023-05-10T02:39:29.534Z,97.07
2023-05-10T02:40:29.508Z,97.07
2023-05-10T02:41:29.502Z,96.87
2023-05-10T02:42:29.474Z,96.77
2023-05-10T02:43:29.486Z,96.87
2023-05-10T02:44:29.445Z,96.87
2023-05-10T02:45:29.431Z,96.67
2023-05-10T02:46:29.436Z,96.67
2023-05-10T02:47:29.503Z,96.56
2023-05-10T02:48:29.421Z,96.36
2023-05-10T02:49:29.388Z,96.26
2023-05-10T02:50:29.368Z,96.26
2023-05-10T02:51:29.356Z,96.26
2023-05-10T02:52:29.359Z,96.15
2023-05-10T02:53:29.349Z,96.15
2023-05-10T02:54:29.325Z,96.15
2023-05-10T02:55:29.315Z,96.26
2023-05-10T02:56:29.291Z,96.36
2023-05-10T02:57:29.301Z,96.36
2023-05-10T02:58:29.265Z,96.46
2023-05-10T02:59:29.257Z,96.67
2023-05-10T03:00:29.239Z,96.67
2023-05-10T03:01:29.254Z,96.77
2023-05-10T03:02:29.307Z,96.87
2023-05-10T03:03:29.201Z,96.97
2023-05-10T03:04:29.220Z,96.97
2023-05-10T03:05:29.174Z,96.97
2023-05-10T03:06:29.192Z,96.87
2023-05-10T03:07:29.161Z,96.87
2023-05-10T03:08:29.130Z,96.87
2023-05-10T03:09:29.127Z,96.87
2023-05-10T03:10:29.102Z,96.77
2023-05-10T03:11:29.120Z,96.67
2023-05-10T03:12:29.077Z,96.67
2023-05-10T03:13:29.343Z,96.77
2023-05-10T03:14:29.051Z,96.87
2023-05-10T03:15:29.039Z,96.87
2023-05-10T03:16:29.099Z,96.77
2023-05-10T03:17:29.034Z,96.77
2023-05-10T03:18:29.008Z,96.87
2023-05-10T03:19:28.982Z,96.87
2023-05-10T03:20:28.975Z,96.77
2023-05-10T03:21:28.980Z,96.77
2023-05-10T03:22:28.957Z,96.67
2023-05-10T03:23:28.940Z,96.77
2023-05-10T03:24:28.923Z,96.97
2023-05-10T03:25:28.918Z,97.07
2023-05-10T03:26:28.909Z,96.97
2023-05-10T03:27:28.897Z,97.07
2023-05-10T03:28:28.879Z,97.17
2023-05-10T03:29:28.872Z,97.28
2023-05-10T03:30:28.858Z,97.28
2023-05-10T03:31:28.917Z,97.38
2023-05-10T03:32:28.824Z,97.38
2023-05-10T03:33:28.802Z,97.38
2023-05-10T03:34:28.798Z,97.48
2023-05-10T03:35:28.784Z,97.58
2023-05-10T03:36:28.755Z,97.58
2023-05-10T03:37:28.784Z,97.48
2023-05-10T03:38:30.474Z,97.38
2023-05-10T03:39:28.806Z,97.38
2023-05-10T03:40:28.728Z,97.38
2023-05-10T03:41:28.692Z,97.38
2023-05-10T03:42:28.684Z,97.48
2023-05-10T03:43:28.671Z,97.48
2023-05-10T03:44:28.674Z,97.48
2023-05-10T03:45:28.663Z,97.48
2023-05-10T03:46:28.661Z,97.48
2023-05-10T03:47:28.637Z,97.48
2023-05-10T03:48:28.596Z,97.58
2023-05-10T03:49:28.601Z,97.69
2023-05-10T03:50:28.564Z,97.78
2023-05-10T03:51:28.549Z,97.78
2023-05-10T03:52:28.533Z,97.78
2023-05-10T03:53:28.523Z,97.78
2023-05-10T03:54:28.524Z,97.78
2023-05-10T03:55:28.508Z,97.78
2023-05-10T03:56:28.499Z,97.78
2023-05-10T03:57:28.481Z,97.78
2023-05-10T03:58:28.485Z,97.78
2023-05-10T03:59:28.473Z,97.58
2023-05-10T04:00:28.451Z,97.58
2023-05-10T04:01:28.432Z,97.48
2023-05-10T04:02:28.513Z,97.58
2023-05-10T04:03:28.461Z,97.58
2023-05-10T04:04:28.393Z,97.58
2023-05-10T04:05:28.378Z,97.58
2023-05-10T04:06:28.404Z,97.58
2023-05-10T04:07:28.351Z,97.48
2023-05-10T04:08:28.347Z,97.48
2023-05-10T04:09:28.318Z,97.38
2023-05-10T04:10:28.295Z,97.38
2023-05-10T04:11:28.288Z,97.38
2023-05-10T04:12:28.284Z,97.38
2023-05-10T04:13:28.358Z,97.28
2023-05-10T04:14:28.248Z,97.17
2023-05-10T04:15:28.242Z,97.17
2023-05-10T04:16:28.281Z,97.17
2023-05-10T04:17:28.242Z,97.07
2023-05-10T04:18:28.229Z,96.97
2023-05-10T04:19:28.583Z,96.77
2023-05-10T04:20:28.182Z,96.87
2023-05-10T04:21:28.156Z,96.87
2023-05-10T04:22:28.154Z,96.87
2023-05-10T04:23:28.158Z,96.67
2023-05-10T04:24:28.120Z,96.56
2023-05-10T04:25:28.102Z,96.67
2023-05-10T04:26:28.106Z,96.77
2023-05-10T04:27:28.097Z,96.97
2023-05-10T04:28:28.099Z,97.28
2023-05-10T04:29:28.056Z,97.48
2023-05-10T04:30:28.052Z,97.48
2023-05-10T04:31:28.119Z,97.48
2023-05-10T04:32:28.088Z,97.58
2023-05-10T04:33:27.998Z,97.58
2023-05-10T04:34:27.978Z,97.69
2023-05-10T04:35:27.967Z,97.69
2023-05-10T04:36:27.958Z,97.78
2023-05-10T04:37:27.974Z,97.78
2023-05-10T04:38:28.001Z,97.58
2023-05-10T04:39:27.921Z,97.28
2023-05-10T04:40:27.912Z,97.17
2023-05-10T04:41:27.933Z,97.28
2023-05-10T04:42:27.901Z,97.48
2023-05-10T04:43:27.864Z,97.58
2023-05-10T04:44:27.866Z,97.69
2023-05-10T04:45:27.870Z,97.58
2023-05-10T04:46:27.880Z,97.58
2023-05-10T04:47:27.842Z,97.48
2023-05-10T04:48:27.834Z,97.48
2023-05-10T04:49:27.801Z,97.38
2023-05-10T04:50:27.767Z,97.38
2023-05-10T04:51:27.886Z,97.48
2023-05-10T04:52:27.724Z,97.48
2023-05-10T04:53:27.768Z,97.58
2023-05-10T04:54:27.730Z,98.09
2023-05-10T04:55:27.719Z,99.06
2023-05-10T04:56:27.701Z,99.22
2023-05-10T04:57:27.677Z,98.86
2023-05-10T04:58:27.674Z,98.05
2023-05-10T04:59:27.662Z,97.40
2023-05-10T05:00:28.331Z,96.79
2023-05-10T05:01:27.689Z,95.94
2023-05-10T05:02:27.730Z,95.42
2023-05-10T05:03:27.672Z,95.02
2023-05-10T05:04:27.591Z,94.57
2023-05-10T05:05:27.632Z,93.96
2023-05-10T05:06:27.559Z,93.35
2023-05-10T05:07:27.555Z,92.80
2023-05-10T05:08:27.551Z,92.29
2023-05-10T05:09:27.518Z,91.78
2023-05-10T05:10:27.528Z,91.17
2023-05-10T05:11:27.492Z,91.58
2023-05-10T05:12:27.479Z,91.89
2023-05-10T05:13:27.562Z,91.48
2023-05-10T05:14:27.449Z,91.34
2023-05-10T05:15:27.471Z,91.03
2023-05-10T05:16:27.502Z,90.73
2023-05-10T05:17:27.507Z,90.38
2023-05-10T05:18:27.386Z,89.87
2023-05-10T05:19:27.407Z,89.67
2023-05-10T05:20:27.419Z,89.57
2023-05-10T05:21:27.356Z,89.17
2023-05-10T05:22:27.346Z,89.06
2023-05-10T05:23:27.342Z,89.23
2023-05-10T05:24:27.337Z,88.92
2023-05-10T05:25:27.311Z,88.31
2023-05-10T05:26:27.313Z,88.21
2023-05-10T05:27:27.274Z,88.01
2023-05-10T05:28:27.273Z,87.54
2023-05-10T05:29:27.279Z,88.09
2023-05-10T05:30:27.252Z,88.75
2023-05-10T05:31:27.297Z,89.35
2023-05-10T05:32:27.238Z,90.20
2023-05-10T05:33:27.221Z,90.86
2023-05-10T05:34:27.208Z,91.36
2023-05-10T05:35:27.171Z,91.77
2023-05-10T05:36:27.159Z,92.22
2023-05-10T05:37:27.178Z,92.52
2023-05-10T05:38:27.168Z,92.97
2023-05-10T05:39:27.131Z,93.48
2023-05-10T05:40:27.252Z,93.59
2023-05-10T05:41:27.086Z,93.89
2023-05-10T05:42:27.081Z,94.09
2023-05-10T05:43:27.095Z,94.29
2023-05-10T05:44:27.047Z,94.44
2023-05-10T05:45:27.042Z,94.54
2023-05-10T05:46:27.133Z,94.74
2023-05-10T05:47:27.081Z,94.95
2023-05-10T05:48:27.020Z,94.85
2023-05-10T05:49:26.983Z,94.74
2023-05-10T05:50:26.977Z,94.64
2023-05-10T05:51:26.957Z,94.64
2023-05-10T05:52:26.971Z,94.64
2023-05-10T05:53:26.958Z,94.74
2023-05-10T05:54:26.939Z,94.85
2023-05-10T05:55:26.969Z,95.25
2023-05-10T05:56:26.888Z,95.56
2023-05-10T05:57:26.902Z,95.76
2023-05-10T05:58:26.882Z,95.86
2023-05-10T05:59:26.851Z,95.76
2023-05-10T06:00:26.858Z,95.66
2023-05-10T06:01:26.836Z,95.66
2023-05-10T06:02:26.884Z,95.82
2023-05-10T06:03:26.911Z,95.72
2023-05-10T06:04:26.858Z,95.51
2023-05-10T06:05:26.774Z,95.41
2023-05-10T06:06:26.779Z,95.41
2023-05-10T06:07:26.754Z,95.31
2023-05-10T06:08:26.764Z,95.31
2023-05-10T06:09:26.726Z,95.10
2023-05-10T06:10:26.716Z,95.31
2023-05-10T06:11:26.711Z,95.87
2023-05-10T06:12:26.692Z,95.47
2023-05-10T06:13:26.801Z,95.17
2023-05-10T06:14:26.674Z,94.86
2023-05-10T06:15:26.645Z,94.76
2023-05-10T06:16:26.669Z,94.66
2023-05-10T06:17:26.637Z,94.51
2023-05-10T06:18:26.659Z,94.41
2023-05-10T06:19:26.586Z,94.21
2023-05-10T06:20:26.593Z,94.00
2023-05-10T06:21:26.576Z,93.49
2023-05-10T06:22:26.555Z,93.40
2023-05-10T06:23:26.531Z,93.90
2023-05-10T06:24:26.538Z,94.51
2023-05-10T06:25:26.515Z,94.61
2023-05-10T06:26:26.542Z,94.61
2023-05-10T06:27:26.484Z,94.61
2023-05-10T06:28:26.484Z,94.61
2023-05-10T06:29:26.455Z,94.57
2023-05-10T06:30:26.472Z,94.26
2023-05-10T06:31:26.453Z,93.96
2023-05-10T06:32:26.460Z,93.76
2023-05-10T06:33:26.384Z,93.55
2023-05-10T06:34:26.398Z,93.65
2023-05-10T06:35:26.389Z,93.76
2023-05-10T06:36:26.371Z,93.86
2023-05-10T06:37:26.342Z,94.06
2023-05-10T06:38:26.327Z,94.17
2023-05-10T06:39:26.336Z,94.17
2023-05-10T06:40:26.346Z,94.37
2023-05-10T06:41:26.293Z,94.67
2023-05-10T06:42:26.294Z,95.12
2023-05-10T06:43:26.266Z,95.42
2023-05-10T06:44:26.272Z,95.53
2023-05-10T06:45:26.224Z,95.63
2023-05-10T06:46:26.278Z,95.53
2023-05-10T06:47:26.264Z,95.22
2023-05-10T06:48:26.205Z,95.12
2023-05-10T06:49:26.195Z,95.22
2023-05-10T06:50:26.182Z,95.42
2023-05-10T06:51:26.166Z,95.63
2023-05-10T06:52:26.157Z,95.22
2023-05-10T06:53:26.155Z,94.92
2023-05-10T06:54:26.134Z,94.41
2023-05-10T06:55:26.111Z,93.60
2023-05-10T06:56:26.094Z,92.99
2023-05-10T06:57:31.616Z,92.99
2023-05-10T06:58:27.159Z,93.09
2023-05-10T06:59:26.086Z,93.19
2023-05-10T07:00:26.115Z,93.45
2023-05-10T07:01:26.163Z,93.45
2023-05-10T07:02:26.288Z,93.45
2023-05-10T07:03:26.028Z,93.55
2023-05-10T07:04:26.047Z,93.55
2023-05-10T07:05:26.124Z,93.45
2023-05-10T07:06:33.363Z,93.35
2023-05-10T07:07:26.958Z,93.15
2023-05-10T07:08:25.933Z,92.54
2023-05-10T07:09:25.934Z,91.93
2023-05-10T07:10:25.916Z,92.33
2023-05-10T07:11:25.918Z,92.84
2023-05-10T07:12:25.968Z,92.94
2023-05-10T07:13:25.981Z,93.15
2023-05-10T07:14:25.945Z,93.15
2023-05-10T07:15:25.845Z,93.45
2023-05-10T07:16:25.857Z,93.65
2023-05-10T07:17:25.955Z,94.17
2023-05-10T07:18:25.829Z,94.46
2023-05-10T07:19:25.790Z,94.98
2023-05-10T07:20:25.770Z,94.37
2023-05-10T07:21:25.882Z,93.65
2023-05-10T07:22:25.762Z,93.76
2023-05-10T07:23:25.727Z,93.96
2023-05-10T07:24:25.728Z,94.17
2023-05-10T07:25:25.702Z,94.12
2023-05-10T07:26:25.719Z,93.51
2023-05-10T07:27:25.689Z,92.70
2023-05-10T07:28:25.790Z,92.29
2023-05-10T07:29:25.666Z,92.29
2023-05-10T07:30:25.656Z,92.90
2023-05-10T07:31:25.643Z,92.45
2023-05-10T07:32:25.761Z,92.25
2023-05-10T07:33:25.597Z,92.14
2023-05-10T07:34:25.582Z,91.94
2023-05-10T07:35:25.589Z,91.64
2023-05-10T07:36:25.576Z,91.38
2023-05-10T07:37:25.541Z,91.58
2023-05-10T07:38:25.543Z,92.19
2023-05-10T07:39:27.542Z,92.19
2023-05-10T07:40:25.519Z,92.19
2023-05-10T07:41:25.480Z,92.19
2023-05-10T07:42:25.499Z,92.19
2023-05-10T07:43:25.562Z,91.68
2023-05-10T07:44:25.452Z,91.08
2023-05-10T07:45:25.463Z,89.76
2023-05-10T07:46:25.453Z,90.06
2023-05-10T07:47:25.431Z,90.67
2023-05-10T07:48:25.400Z,91.08
2023-05-10T07:49:25.396Z,91.68
2023-05-10T07:50:25.397Z,92.19
2023-05-10T07:51:25.356Z,92.29
2023-05-10T07:52:25.356Z,91.99
2023-05-10T07:53:25.331Z,92.49
2023-05-10T07:54:25.345Z,92.40
2023-05-10T07:55:25.299Z,92.29
2023-05-10T07:56:25.389Z,92.49
2023-05-10T07:57:25.277Z,92.86
2023-05-10T07:58:25.276Z,92.45
2023-05-10T07:59:25.248Z,91.94
2023-05-10T08:00:25.247Z,90.83
2023-05-10T08:01:25.215Z,90.53
2023-05-10T08:02:25.273Z,90.38
2023-05-10T08:03:25.227Z,90.18
2023-05-10T08:04:25.278Z,90.32
2023-05-10T08:05:25.183Z,90.99
2023-05-10T08:06:25.157Z,90.89
2023-05-10T08:07:25.137Z,90.18
2023-05-10T08:08:25.213Z,89.81
2023-05-10T08:09:25.416Z,90.53
2023-05-10T08:10:25.108Z,90.73
2023-05-10T08:11:25.120Z,89.65
2023-05-10T08:12:25.076Z,89.76
2023-05-10T08:13:25.081Z,90.36
2023-05-10T08:14:25.064Z,89.96
2023-05-10T08:15:25.038Z,90.97
2023-05-10T08:16:25.108Z,91.28
2023-05-10T08:17:25.010Z,90.97
2023-05-10T08:18:25.037Z,91.17
2023-05-10T08:19:25.009Z,91.68
2023-05-10T08:20:24.960Z,91.28
2023-05-10T08:21:24.954Z,91.17
2023-05-10T08:22:24.956Z,91.48
2023-05-10T08:23:24.944Z,92.29
2023-05-10T08:24:24.911Z,92.60
2023-05-10T08:25:24.886Z,91.54
2023-05-10T08:26:24.890Z,91.13
2023-05-10T08:27:24.891Z,91.34
2023-05-10T08:28:24.880Z,91.54
2023-05-10T08:29:26.602Z,91.64
2023-05-10T08:30:24.840Z,90.93
2023-05-10T08:31:24.844Z,89.72
2023-05-10T08:32:24.900Z,90.32
2023-05-10T08:33:24.780Z,90.42
2023-05-10T08:34:25.288Z,90.42
2023-05-10T08:35:24.782Z,90.62
2023-05-10T08:36:24.750Z,91.13
2023-05-10T08:37:24.757Z,90.53
2023-05-10T08:38:24.707Z,89.72
2023-05-10T08:39:30.415Z,89.01
2023-05-10T08:40:25.716Z,88.80
2023-05-10T08:41:24.729Z,88.49
2023-05-10T08:42:24.681Z,88.80
2023-05-10T08:43:24.661Z,88.80
2023-05-10T08:44:24.654Z,89.11
2023-05-10T08:45:24.644Z,88.70
2023-05-10T08:46:24.803Z,89.31
2023-05-10T08:47:24.672Z,89.51
2023-05-10T08:48:24.592Z,88.49
2023-05-10T08:49:24.586Z,88.49
2023-05-10T08:50:24.565Z,87.59
2023-05-10T08:51:24.568Z,87.79
2023-05-10T08:52:24.546Z,88.20
2023-05-10T08:53:24.526Z,88.86
2023-05-10T08:54:24.556Z,89.67
2023-05-10T08:55:24.502Z,89.43
2023-05-10T08:56:24.515Z,88.92
2023-05-10T08:57:24.489Z,90.03
2023-05-10T08:58:24.452Z,90.44
2023-05-10T08:59:24.449Z,89.43
2023-05-10T09:00:24.490Z,89.39
2023-05-10T09:01:24.537Z,87.20
2023-05-10T09:02:24.486Z,86.76
2023-05-10T09:03:24.399Z,88.48
2023-05-10T09:04:24.454Z,87.56
2023-05-10T09:05:24.429Z,87.66
2023-05-10T09:06:24.417Z,86.76
2023-05-10T09:07:24.350Z,85.68
2023-05-10T09:08:24.325Z,86.25
2023-05-10T09:09:24.329Z,84.63
2023-05-10T09:10:24.329Z,84.22
2023-05-10T09:11:24.292Z,84.63
2023-05-10T09:12:24.280Z,85.13
2023-05-10T09:13:24.325Z,84.83
2023-05-10T09:14:24.252Z,85.54
2023-05-10T09:15:24.276Z,85.03
2023-05-10T09:16:24.246Z,86.25
2023-05-10T09:17:24.288Z,85.54
2023-05-10T09:18:25.953Z,86.21
2023-05-10T09:19:24.215Z,86.10
2023-05-10T09:20:24.181Z,86.00
2023-05-10T09:21:24.163Z,86.61
2023-05-10T09:22:24.148Z,87.79
2023-05-10T09:23:24.140Z,88.59
2023-05-10T09:24:24.139Z,88.39
2023-05-10T09:25:24.114Z,87.18
2023-05-10T09:26:24.102Z,86.16
2023-05-10T09:27:24.079Z,86.98
2023-05-10T09:28:24.056Z,87.08
2023-05-10T09:29:24.069Z,87.18
2023-05-10T09:30:24.038Z,86.67
2023-05-10T09:31:24.144Z,86.27
2023-05-10T09:32:24.042Z,85.86
2023-05-10T09:33:24.000Z,84.00
2023-05-10T09:34:24.037Z,82.49
2023-05-10T09:35:25.046Z,81.88
2023-05-10T09:36:23.964Z,81.68
2023-05-10T09:37:23.951Z,81.82
2023-05-10T09:38:23.936Z,83.03
2023-05-10T09:39:23.954Z,82.12
2023-05-10T09:40:23.928Z,81.41
2023-05-10T09:41:23.944Z,81.62
2023-05-10T09:42:23.880Z,83.03
2023-05-10T09:43:23.884Z,84.11
2023-05-10T09:44:23.857Z,82.53
2023-05-10T09:45:23.845Z,80.80
2023-05-10T09:46:23.892Z,83.23
2023-05-10T09:47:23.832Z,83.64
2023-05-10T09:48:23.819Z,84.00
2023-05-10T09:49:23.794Z,84.91
2023-05-10T09:50:23.791Z,83.90
2023-05-10T09:51:23.749Z,85.02
2023-05-10T09:52:23.764Z,84.65
2023-05-10T09:53:23.756Z,81.92
2023-05-10T09:54:23.729Z,83.44
2023-05-10T09:55:23.729Z,82.83
2023-05-10T09:56:23.693Z,82.53
2023-05-10T09:57:23.685Z,82.28
2023-05-10T09:58:23.666Z,82.89
2023-05-10T09:59:23.659Z,84.27
2023-05-10T10:00:23.651Z,84.97
2023-05-10T10:01:23.665Z,81.34
2023-05-10T10:02:23.646Z,79.55
2023-05-10T10:03:23.613Z,78.95
2023-05-10T10:04:23.618Z,79.46
2023-05-10T10:05:23.577Z,80.66
2023-05-10T10:06:30.241Z,82.39
2023-05-10T10:07:24.579Z,81.37
2023-05-10T10:08:23.526Z,81.71
2023-05-10T10:09:23.532Z,81.21
2023-05-10T10:10:23.510Z,82.02
2023-05-10T10:11:23.517Z,81.62
2023-05-10T10:12:23.463Z,82.12
2023-05-10T10:13:23.495Z,82.83
2023-05-10T10:14:23.452Z,83.94
2023-05-10T10:15:23.544Z,83.68
2023-05-10T10:16:23.525Z,83.84
2023-05-10T10:17:23.449Z,83.17
2023-05-10T10:18:23.438Z,83.17
2023-05-10T10:19:23.391Z,81.85
2023-05-10T10:20:23.417Z,81.49
2023-05-10T10:21:23.400Z,80.68
2023-05-10T10:22:23.347Z,79.67
2023-05-10T10:23:23.357Z,79.40
2023-05-10T10:24:23.328Z,80.01
2023-05-10T10:25:23.354Z,80.92
2023-05-10T10:26:23.316Z,80.72
2023-05-10T10:27:23.280Z,81.26
2023-05-10T10:28:23.299Z,81.97
2023-05-10T10:29:23.258Z,82.17
2023-05-10T10:30:23.258Z,82.64
2023-05-10T10:31:23.277Z,84.36
2023-05-10T10:32:23.216Z,82.89
2023-05-10T10:33:28.499Z,83.69
2023-05-10T10:34:24.218Z,83.69
2023-05-10T10:35:23.219Z,83.76
2023-05-10T10:36:23.159Z,82.68
2023-05-10T10:37:23.147Z,82.17
2023-05-10T10:38:23.143Z,83.86
2023-05-10T10:39:23.144Z,82.78
2023-05-10T10:40:23.125Z,82.17
2023-05-10T10:41:23.114Z,81.97
2023-05-10T10:42:23.100Z,82.98
2023-05-10T10:43:23.086Z,82.98
2023-05-10T10:44:23.085Z,82.17
2023-05-10T10:45:23.068Z,82.28
2023-05-10T10:46:23.063Z,82.89
2023-05-10T10:47:23.079Z,82.58
2023-05-10T10:48:22.995Z,83.45
2023-05-10T10:49:23.048Z,82.84
2023-05-10T10:50:23.011Z,82.34
2023-05-10T10:51:22.968Z,81.93
2023-05-10T10:52:23.034Z,83.15
2023-05-10T10:53:23.020Z,83.55
2023-05-10T10:54:22.987Z,82.95
2023-05-10T10:55:22.927Z,81.63
2023-05-10T10:56:22.928Z,82.44
2023-05-10T10:57:22.890Z,82.54
2023-05-10T10:58:22.900Z,82.95
2023-05-10T10:59:22.866Z,83.04
2023-05-10T11:00:22.855Z,82.60
2023-05-10T11:01:22.935Z,82.90
2023-05-10T11:02:22.811Z,83.31
2023-05-10T11:03:22.814Z,81.99
2023-05-10T11:04:22.886Z,80.88
2023-05-10T11:05:22.787Z,81.09
2023-05-10T11:06:22.867Z,82.56
2023-05-10T11:07:22.746Z,82.97
2023-05-10T11:08:22.772Z,82.36
2023-05-10T11:09:22.718Z,81.85
2023-05-10T11:10:22.721Z,81.65
2023-05-10T11:11:22.691Z,81.21
2023-05-10T11:12:22.774Z,81.31
2023-05-10T11:13:22.998Z,80.30
2023-05-10T11:14:22.685Z,80.91
2023-05-10T11:15:22.647Z,81.11
2023-05-10T11:16:22.734Z,80.50
2023-05-10T11:17:22.652Z,79.90
2023-05-10T11:18:22.621Z,79.49
2023-05-10T11:19:22.599Z,80.36
2023-05-10T11:20:22.576Z,77.64
2023-05-10T11:21:22.568Z,77.43
2023-05-10T11:22:22.592Z,78.55
2023-05-10T11:23:22.560Z,77.33
2023-05-10T11:24:22.519Z,76.89
2023-05-10T11:25:22.645Z,77.50
2023-05-10T11:26:22.496Z,77.76
2023-05-10T11:27:22.506Z,77.66
2023-05-10T11:28:22.466Z,77.46
2023-05-10T11:29:22.503Z,79.14
2023-05-10T11:30:22.447Z,80.35
2023-05-10T11:31:22.579Z,78.23
2023-05-10T11:32:22.480Z,77.22
2023-05-10T11:33:22.407Z,76.42
2023-05-10T11:34:22.399Z,72.68
2023-05-10T11:35:22.394Z,74.19
2023-05-10T11:36:22.398Z,74.73
2023-05-10T11:37:22.355Z,73.72
2023-05-10T11:38:22.350Z,74.73
2023-05-10T11:39:22.339Z,73.62
2023-05-10T11:40:22.335Z,73.15
2023-05-10T11:41:22.321Z,73.86
2023-05-10T11:42:22.309Z,74.46
2023-05-10T11:43:22.284Z,74.97
2023-05-10T11:44:22.265Z,75.98
2023-05-10T11:45:22.288Z,77.36
2023-05-10T11:46:22.364Z,77.86
2023-05-10T11:47:22.223Z,78.57
2023-05-10T11:48:22.205Z,76.75
2023-05-10T11:49:22.203Z,75.51
2023-05-10T11:50:22.199Z,72.98
2023-05-10T11:51:22.174Z,72.98
2023-05-10T11:52:22.166Z,73.38
2023-05-10T11:53:23.705Z,74.19
2023-05-10T11:54:22.141Z,72.58
2023-05-10T11:55:22.136Z,73.18
2023-05-10T11:56:22.114Z,72.38
2023-05-10T11:57:22.095Z,73.28
2023-05-10T11:58:22.076Z,74.19
2023-05-10T11:59:22.097Z,75.51
2023-05-10T12:00:22.107Z,73.79
2023-05-10T12:01:22.050Z,73.38
2023-05-10T12:02:22.065Z,74.26
2023-05-10T12:03:22.154Z,73.49
2023-05-10T12:04:22.172Z,73.49
2023-05-10T12:05:22.011Z,73.82
2023-05-10T12:06:21.971Z,73.66
2023-05-10T12:07:21.981Z,74.66
2023-05-10T12:08:21.954Z,76.12
2023-05-10T12:09:35.435Z,76.82
2023-05-10T12:10:22.928Z,77.03
2023-05-10T12:11:21.919Z,78.44
2023-05-10T12:12:21.892Z,75.71
2023-05-10T12:13:21.889Z,75.51
2023-05-10T12:14:21.882Z,76.02
2023-05-10T12:15:21.862Z,76.62
2023-05-10T12:16:21.883Z,77.23
2023-05-10T12:17:21.826Z,77.84
2023-05-10T12:18:21.857Z,77.97
2023-05-10T12:19:21.820Z,78.14
2023-05-10T12:20:21.783Z,77.06
2023-05-10T12:21:21.843Z,77.77
2023-05-10T12:22:21.763Z,77.57
2023-05-10T12:23:21.768Z,77.47
2023-05-10T12:24:21.746Z,77.37
2023-05-10T12:25:21.728Z,78.58
2023-05-10T12:26:21.708Z,79.29
2023-05-10T12:27:21.688Z,78.48
2023-05-10T12:28:21.752Z,78.48
2023-05-10T12:29:21.666Z,77.87
2023-05-10T12:30:21.665Z,78.38
2023-05-10T12:31:21.687Z,77.97
2023-05-10T12:32:21.616Z,78.58
2023-05-10T12:33:21.648Z,78.17
2023-05-10T12:34:21.597Z,77.77
2023-05-10T12:35:21.591Z,78.08
2023-05-10T12:36:21.569Z,79.08
2023-05-10T12:37:21.581Z,79.79
2023-05-10T12:38:21.557Z,79.69
2023-05-10T12:39:21.575Z,79.75
2023-05-10T12:40:21.512Z,79.25
2023-05-10T12:41:21.545Z,79.15
2023-05-10T12:42:21.500Z,79.66
2023-05-10T12:43:21.511Z,79.62
2023-05-10T12:44:21.470Z,78.30
2023-05-10T12:45:21.464Z,77.19
2023-05-10T12:46:21.523Z,78.10
2023-05-10T12:47:21.452Z,78.10
2023-05-10T12:48:21.423Z,77.80
2023-05-10T12:49:21.400Z,77.50
2023-05-10T12:50:21.394Z,77.29
2023-05-10T12:51:21.380Z,77.29
2023-05-10T12:52:21.389Z,77.80